sensor_id;sensor_type;location;lat;lon;timestamp;P1;durP1;ratioP1;P2;durP2;ratioP2
8312;SDS011;4194;43.408;24.626;2022-10-26T00:00:00;4.43;;;3.73;;
8312;SDS011;4194;43.408;24.626;2022-10-26T00:02:26;5.57;;;3.87;;
8312;SDS011;4194;43.408;24.626;2022-10-26T00:04:52;6.20;;;3.60;;
8312;SDS011;4194;43.408;24.626;2022-10-26T00:07:17;6.40;;;3.80;;
8312;SDS011;4194;43.408;24.626;2022-10-26T00:09:43;5.73;;;3.97;;
8312;SDS011;4194;43.408;24.626;2022-10-26T00:12:09;5.57;;;4.27;;
8312;SDS011;4194;43.408;24.626;2022-10-26T00:14:35;6.20;;;3.60;;
8312;SDS011;4194;43.408;24.626;2022-10-26T00:17:01;6.87;;;3.97;;
8312;SDS011;4194;43.408;24.626;2022-10-26T00:19:27;6.23;;;4.03;;
8312;SDS011;4194;43.408;24.626;2022-10-26T00:21:52;8.43;;;4.03;;
8312;SDS011;4194;43.408;24.626;2022-10-26T00:24:18;5.30;;;4.80;;
8312;SDS011;4194;43.408;24.626;2022-10-26T00:26:44;8.47;;;4.73;;
8312;SDS011;4194;43.408;24.626;2022-10-26T00:29:11;5.03;;;4.20;;
8312;SDS011;4194;43.408;24.626;2022-10-26T00:31:37;6.80;;;4.40;;
8312;SDS011;4194;43.408;24.626;2022-10-26T00:34:04;5.47;;;3.97;;
8312;SDS011;4194;43.408;24.626;2022-10-26T00:36:30;8.37;;;4.77;;
8312;SDS011;4194;43.408;24.626;2022-10-26T00:38:56;5.77;;;3.70;;
8312;SDS011;4194;43.408;24.626;2022-10-26T00:41:26;6.87;;;3.60;;
8312;SDS011;4194;43.408;24.626;2022-10-26T00:43:54;4.60;;;4.20;;
8312;SDS011;4194;43.408;24.626;2022-10-26T00:48:48;4.97;;;4.00;;
8312;SDS011;4194;43.408;24.626;2022-10-26T00:53:51;5.17;;;4.10;;
8312;SDS011;4194;43.408;24.626;2022-10-26T00:56:18;4.47;;;4.07;;
8312;SDS011;4194;43.408;24.626;2022-10-26T00:58:44;5.73;;;4.27;;
8312;SDS011;4194;43.408;24.626;2022-10-26T01:01:11;7.87;;;4.37;;
8312;SDS011;4194;43.408;24.626;2022-10-26T01:03:36;4.97;;;4.40;;
8312;SDS011;4194;43.408;24.626;2022-10-26T01:06:03;4.20;;;3.77;;
8312;SDS011;4194;43.408;24.626;2022-10-26T01:08:30;4.90;;;3.53;;
8312;SDS011;4194;43.408;24.626;2022-10-26T01:10:56;4.97;;;3.97;;
8312;SDS011;4194;43.408;24.626;2022-10-26T01:13:24;5.50;;;4.00;;
8312;SDS011;4194;43.408;24.626;2022-10-26T01:21:34;5.73;;;4.80;;
8312;SDS011;4194;43.408;24.626;2022-10-26T01:32:17;5.93;;;4.53;;
8312;SDS011;4194;43.408;24.626;2022-10-26T01:37:41;7.10;;;4.70;;
8312;SDS011;4194;43.408;24.626;2022-10-26T01:40:35;5.70;;;4.93;;
8312;SDS011;4194;43.408;24.626;2022-10-26T01:43:09;6.90;;;4.93;;
8312;SDS011;4194;43.408;24.626;2022-10-26T01:45:38;6.87;;;4.70;;
8312;SDS011;4194;43.408;24.626;2022-10-26T01:48:07;5.87;;;4.30;;
8312;SDS011;4194;43.408;24.626;2022-10-26T01:50:36;8.63;;;5.13;;
8312;SDS011;4194;43.408;24.626;2022-10-26T01:53:04;7.10;;;4.50;;
8312;SDS011;4194;43.408;24.626;2022-10-26T01:55:38;6.93;;;4.57;;
8312;SDS011;4194;43.408;24.626;2022-10-26T02:03:47;7.27;;;5.27;;
8312;SDS011;4194;43.408;24.626;2022-10-26T02:06:43;4.97;;;4.47;;
8312;SDS011;4194;43.408;24.626;2022-10-26T02:09:32;6.13;;;4.30;;
8312;SDS011;4194;43.408;24.626;2022-10-26T02:12:16;5.80;;;4.27;;
8312;SDS011;4194;43.408;24.626;2022-10-26T02:14:56;6.18;;;4.78;;
8312;SDS011;4194;43.408;24.626;2022-10-26T02:17:37;6.07;;;4.63;;
8312;SDS011;4194;43.408;24.626;2022-10-26T02:20:23;5.73;;;4.47;;
8312;SDS011;4194;43.408;24.626;2022-10-26T02:22:52;5.07;;;4.50;;
8312;SDS011;4194;43.408;24.626;2022-10-26T02:25:21;7.63;;;4.50;;
8312;SDS011;4194;43.408;24.626;2022-10-26T02:27:50;6.07;;;4.63;;
8312;SDS011;4194;43.408;24.626;2022-10-26T02:30:20;5.00;;;4.47;;
8312;SDS011;4194;43.408;24.626;2022-10-26T02:32:50;6.40;;;4.17;;
8312;SDS011;4194;43.408;24.626;2022-10-26T02:35:19;5.30;;;4.40;;
8312;SDS011;4194;43.408;24.626;2022-10-26T02:37:48;7.33;;;4.47;;
8312;SDS011;4194;43.408;24.626;2022-10-26T02:40:18;7.43;;;4.27;;
8312;SDS011;4194;43.408;24.626;2022-10-26T02:42:48;4.97;;;3.93;;
8312;SDS011;4194;43.408;24.626;2022-10-26T02:45:16;4.73;;;3.97;;
8312;SDS011;4194;43.408;24.626;2022-10-26T02:47:46;6.50;;;4.27;;
8312;SDS011;4194;43.408;24.626;2022-10-26T02:50:12;7.87;;;4.40;;
8312;SDS011;4194;43.408;24.626;2022-10-26T02:53:00;5.40;;;4.90;;
8312;SDS011;4194;43.408;24.626;2022-10-26T02:55:31;5.93;;;3.90;;
8312;SDS011;4194;43.408;24.626;2022-10-26T02:58:05;6.40;;;4.33;;
8312;SDS011;4194;43.408;24.626;2022-10-26T03:00:37;4.63;;;4.20;;
8312;SDS011;4194;43.408;24.626;2022-10-26T03:03:03;6.43;;;3.90;;
8312;SDS011;4194;43.408;24.626;2022-10-26T03:05:30;4.77;;;3.93;;
8312;SDS011;4194;43.408;24.626;2022-10-26T03:07:58;9.23;;;4.30;;
8312;SDS011;4194;43.408;24.626;2022-10-26T03:10:25;6.73;;;4.57;;
8312;SDS011;4194;43.408;24.626;2022-10-26T03:12:51;6.87;;;4.10;;
8312;SDS011;4194;43.408;24.626;2022-10-26T03:15:17;5.20;;;3.83;;
8312;SDS011;4194;43.408;24.626;2022-10-26T03:17:43;7.30;;;4.47;;
8312;SDS011;4194;43.408;24.626;2022-10-26T03:20:09;8.90;;;4.30;;
8312;SDS011;4194;43.408;24.626;2022-10-26T03:22:36;5.10;;;4.13;;
8312;SDS011;4194;43.408;24.626;2022-10-26T03:25:02;5.17;;;4.40;;
8312;SDS011;4194;43.408;24.626;2022-10-26T03:27:28;8.23;;;4.80;;
8312;SDS011;4194;43.408;24.626;2022-10-26T03:29:54;6.63;;;4.30;;
8312;SDS011;4194;43.408;24.626;2022-10-26T03:32:20;8.73;;;4.40;;
8312;SDS011;4194;43.408;24.626;2022-10-26T03:34:45;8.57;;;4.60;;
8312;SDS011;4194;43.408;24.626;2022-10-26T03:37:11;6.53;;;4.70;;
8312;SDS011;4194;43.408;24.626;2022-10-26T03:39:37;8.18;;;5.10;;
8312;SDS011;4194;43.408;24.626;2022-10-26T03:42:02;7.50;;;4.53;;
8312;SDS011;4194;43.408;24.626;2022-10-26T03:44:28;7.93;;;4.60;;
8312;SDS011;4194;43.408;24.626;2022-10-26T03:46:54;6.07;;;4.60;;
8312;SDS011;4194;43.408;24.626;2022-10-26T03:49:19;6.63;;;4.50;;
8312;SDS011;4194;43.408;24.626;2022-10-26T03:51:45;6.50;;;5.03;;
8312;SDS011;4194;43.408;24.626;2022-10-26T03:54:11;8.33;;;5.10;;
8312;SDS011;4194;43.408;24.626;2022-10-26T03:56:36;9.57;;;5.37;;
8312;SDS011;4194;43.408;24.626;2022-10-26T03:59:02;10.97;;;4.93;;
8312;SDS011;4194;43.408;24.626;2022-10-26T04:01:28;5.97;;;4.80;;
8312;SDS011;4194;43.408;24.626;2022-10-26T04:03:54;6.07;;;5.00;;
8312;SDS011;4194;43.408;24.626;2022-10-26T04:06:19;6.50;;;4.87;;
8312;SDS011;4194;43.408;24.626;2022-10-26T04:08:45;6.17;;;4.97;;
8312;SDS011;4194;43.408;24.626;2022-10-26T04:11:11;6.50;;;5.33;;
8312;SDS011;4194;43.408;24.626;2022-10-26T04:13:36;9.53;;;4.80;;
8312;SDS011;4194;43.408;24.626;2022-10-26T04:16:02;10.70;;;5.50;;
8312;SDS011;4194;43.408;24.626;2022-10-26T04:18:28;6.80;;;4.17;;
8312;SDS011;4194;43.408;24.626;2022-10-26T04:20:53;8.83;;;4.93;;
8312;SDS011;4194;43.408;24.626;2022-10-26T04:23:20;8.97;;;5.03;;
8312;SDS011;4194;43.408;24.626;2022-10-26T04:25:46;11.20;;;5.07;;
8312;SDS011;4194;43.408;24.626;2022-10-26T04:28:12;11.07;;;5.20;;
8312;SDS011;4194;43.408;24.626;2022-10-26T04:30:38;9.20;;;4.73;;
8312;SDS011;4194;43.408;24.626;2022-10-26T04:33:05;10.80;;;5.27;;
8312;SDS011;4194;43.408;24.626;2022-10-26T04:35:31;5.60;;;4.87;;
8312;SDS011;4194;43.408;24.626;2022-10-26T04:38:00;6.77;;;5.23;;
8312;SDS011;4194;43.408;24.626;2022-10-26T04:40:27;6.70;;;4.80;;
8312;SDS011;4194;43.408;24.626;2022-10-26T04:42:54;10.80;;;4.63;;
8312;SDS011;4194;43.408;24.626;2022-10-26T04:45:21;14.63;;;6.30;;
8312;SDS011;4194;43.408;24.626;2022-10-26T04:47:57;16.07;;;6.33;;
8312;SDS011;4194;43.408;24.626;2022-10-26T04:50:30;14.73;;;6.40;;
8312;SDS011;4194;43.408;24.626;2022-10-26T04:52:56;10.90;;;5.60;;
8312;SDS011;4194;43.408;24.626;2022-10-26T04:55:22;15.03;;;5.53;;
8312;SDS011;4194;43.408;24.626;2022-10-26T04:57:55;12.57;;;5.57;;
8312;SDS011;4194;43.408;24.626;2022-10-26T05:00:39;11.40;;;5.27;;
8312;SDS011;4194;43.408;24.626;2022-10-26T05:03:05;11.37;;;5.07;;
8312;SDS011;4194;43.408;24.626;2022-10-26T05:05:32;10.67;;;4.97;;
8312;SDS011;4194;43.408;24.626;2022-10-26T05:07:59;12.17;;;5.63;;
8312;SDS011;4194;43.408;24.626;2022-10-26T05:10:26;16.43;;;5.63;;
8312;SDS011;4194;43.408;24.626;2022-10-26T05:12:53;15.70;;;5.47;;
8312;SDS011;4194;43.408;24.626;2022-10-26T05:15:20;10.33;;;5.23;;
8312;SDS011;4194;43.408;24.626;2022-10-26T05:17:46;12.23;;;5.67;;
8312;SDS011;4194;43.408;24.626;2022-10-26T05:20:18;10.80;;;5.53;;
8312;SDS011;4194;43.408;24.626;2022-10-26T05:22:44;14.93;;;6.10;;
8312;SDS011;4194;43.408;24.626;2022-10-26T05:25:16;13.30;;;6.30;;
8312;SDS011;4194;43.408;24.626;2022-10-26T05:27:42;18.17;;;5.50;;
8312;SDS011;4194;43.408;24.626;2022-10-26T05:30:08;12.07;;;5.67;;
8312;SDS011;4194;43.408;24.626;2022-10-26T05:32:34;10.80;;;5.53;;
8312;SDS011;4194;43.408;24.626;2022-10-26T05:35:00;13.57;;;5.80;;
8312;SDS011;4194;43.408;24.626;2022-10-26T05:37:29;13.40;;;5.53;;
8312;SDS011;4194;43.408;24.626;2022-10-26T05:39:55;12.63;;;5.60;;
8312;SDS011;4194;43.408;24.626;2022-10-26T05:42:21;14.37;;;5.60;;
8312;SDS011;4194;43.408;24.626;2022-10-26T05:44:47;17.87;;;6.40;;
8312;SDS011;4194;43.408;24.626;2022-10-26T05:47:13;17.43;;;5.90;;
8312;SDS011;4194;43.408;24.626;2022-10-26T05:49:39;12.70;;;6.03;;
8312;SDS011;4194;43.408;24.626;2022-10-26T05:52:04;11.83;;;5.33;;
8312;SDS011;4194;43.408;24.626;2022-10-26T05:54:31;8.00;;;4.40;;
8312;SDS011;4194;43.408;24.626;2022-10-26T05:56:56;12.23;;;5.37;;
8312;SDS011;4194;43.408;24.626;2022-10-26T05:59:22;6.97;;;4.73;;
8312;SDS011;4194;43.408;24.626;2022-10-26T06:04:42;11.07;;;4.47;;
8312;SDS011;4194;43.408;24.626;2022-10-26T06:07:16;7.00;;;4.70;;
8312;SDS011;4194;43.408;24.626;2022-10-26T06:09:46;7.63;;;4.43;;
8312;SDS011;4194;43.408;24.626;2022-10-26T06:12:12;7.23;;;4.13;;
8312;SDS011;4194;43.408;24.626;2022-10-26T06:14:38;8.80;;;4.30;;
8312;SDS011;4194;43.408;24.626;2022-10-26T06:17:23;6.23;;;4.10;;
8312;SDS011;4194;43.408;24.626;2022-10-26T06:25:49;8.73;;;4.40;;
8312;SDS011;4194;43.408;24.626;2022-10-26T06:28:37;6.50;;;3.67;;
8312;SDS011;4194;43.408;24.626;2022-10-26T06:31:27;6.30;;;3.40;;
8312;SDS011;4194;43.408;24.626;2022-10-26T06:33:55;4.47;;;3.57;;
8312;SDS011;4194;43.408;24.626;2022-10-26T06:36:24;8.17;;;3.63;;
8312;SDS011;4194;43.408;24.626;2022-10-26T06:38:53;5.60;;;4.07;;
8312;SDS011;4194;43.408;24.626;2022-10-26T06:41:29;4.07;;;3.37;;
8312;SDS011;4194;43.408;24.626;2022-10-26T06:43:57;5.83;;;3.33;;
8312;SDS011;4194;43.408;24.626;2022-10-26T06:46:40;4.97;;;3.53;;
8312;SDS011;4194;43.408;24.626;2022-10-26T06:49:30;6.73;;;3.43;;
8312;SDS011;4194;43.408;24.626;2022-10-26T06:57:20;7.10;;;4.20;;
8312;SDS011;4194;43.408;24.626;2022-10-26T06:59:57;8.30;;;3.70;;
8312;SDS011;4194;43.408;24.626;2022-10-26T07:02:26;5.07;;;3.50;;
8312;SDS011;4194;43.408;24.626;2022-10-26T07:04:51;6.63;;;4.47;;
8312;SDS011;4194;43.408;24.626;2022-10-26T07:07:21;6.80;;;3.90;;
8312;SDS011;4194;43.408;24.626;2022-10-26T07:09:50;7.43;;;4.13;;
8312;SDS011;4194;43.408;24.626;2022-10-26T07:12:16;7.33;;;3.90;;
8312;SDS011;4194;43.408;24.626;2022-10-26T07:14:41;9.40;;;4.40;;
8312;SDS011;4194;43.408;24.626;2022-10-26T07:17:08;5.03;;;3.67;;
8312;SDS011;4194;43.408;24.626;2022-10-26T07:19:34;8.90;;;3.87;;
8312;SDS011;4194;43.408;24.626;2022-10-26T07:21:59;5.37;;;4.37;;
8312;SDS011;4194;43.408;24.626;2022-10-26T07:24:29;5.43;;;3.40;;
8312;SDS011;4194;43.408;24.626;2022-10-26T07:26:55;6.17;;;3.87;;
8312;SDS011;4194;43.408;24.626;2022-10-26T07:29:22;4.23;;;3.50;;
8312;SDS011;4194;43.408;24.626;2022-10-26T07:31:49;6.83;;;4.00;;
8312;SDS011;4194;43.408;24.626;2022-10-26T07:34:15;7.20;;;4.10;;
8312;SDS011;4194;43.408;24.626;2022-10-26T07:36:41;4.43;;;3.43;;
8312;SDS011;4194;43.408;24.626;2022-10-26T07:39:07;4.67;;;3.80;;
8312;SDS011;4194;43.408;24.626;2022-10-26T07:41:33;9.03;;;3.70;;
8312;SDS011;4194;43.408;24.626;2022-10-26T07:43:58;4.40;;;3.77;;
8312;SDS011;4194;43.408;24.626;2022-10-26T07:46:24;7.43;;;4.20;;
8312;SDS011;4194;43.408;24.626;2022-10-26T07:48:50;6.93;;;3.70;;
8312;SDS011;4194;43.408;24.626;2022-10-26T07:51:16;4.87;;;3.60;;
8312;SDS011;4194;43.408;24.626;2022-10-26T07:53:42;5.10;;;3.77;;
8312;SDS011;4194;43.408;24.626;2022-10-26T07:56:08;4.17;;;3.23;;
8312;SDS011;4194;43.408;24.626;2022-10-26T07:58:34;4.37;;;3.77;;
8312;SDS011;4194;43.408;24.626;2022-10-26T08:01:04;3.73;;;3.40;;
8312;SDS011;4194;43.408;24.626;2022-10-26T08:03:35;8.57;;;3.47;;
8312;SDS011;4194;43.408;24.626;2022-10-26T08:06:01;4.23;;;3.57;;
8312;SDS011;4194;43.408;24.626;2022-10-26T08:08:28;7.83;;;3.43;;
8312;SDS011;4194;43.408;24.626;2022-10-26T08:10:57;6.13;;;3.80;;
8312;SDS011;4194;43.408;24.626;2022-10-26T08:13:23;6.30;;;3.20;;
8312;SDS011;4194;43.408;24.626;2022-10-26T08:15:54;11.23;;;3.77;;
8312;SDS011;4194;43.408;24.626;2022-10-26T08:18:25;5.60;;;3.43;;
8312;SDS011;4194;43.408;24.626;2022-10-26T08:20:51;5.20;;;3.43;;
8312;SDS011;4194;43.408;24.626;2022-10-26T08:23:17;5.30;;;3.50;;
8312;SDS011;4194;43.408;24.626;2022-10-26T08:25:42;8.13;;;4.40;;
8312;SDS011;4194;43.408;24.626;2022-10-26T08:28:08;6.80;;;4.00;;
8312;SDS011;4194;43.408;24.626;2022-10-26T08:30:34;6.63;;;4.53;;
8312;SDS011;4194;43.408;24.626;2022-10-26T08:33:00;8.07;;;4.37;;
8312;SDS011;4194;43.408;24.626;2022-10-26T08:35:28;8.90;;;4.27;;
8312;SDS011;4194;43.408;24.626;2022-10-26T08:37:54;4.57;;;4.00;;
8312;SDS011;4194;43.408;24.626;2022-10-26T08:40:30;5.63;;;4.17;;
8312;SDS011;4194;43.408;24.626;2022-10-26T08:43:10;5.33;;;3.83;;
8312;SDS011;4194;43.408;24.626;2022-10-26T08:45:50;4.63;;;3.40;;
8312;SDS011;4194;43.408;24.626;2022-10-26T08:48:26;3.43;;;3.07;;
8312;SDS011;4194;43.408;24.626;2022-10-26T08:51:02;5.90;;;3.20;;
8312;SDS011;4194;43.408;24.626;2022-10-26T08:53:36;4.50;;;2.90;;
8312;SDS011;4194;43.408;24.626;2022-10-26T08:56:34;5.70;;;3.20;;
8312;SDS011;4194;43.408;24.626;2022-10-26T09:02:00;5.73;;;3.10;;
8312;SDS011;4194;43.408;24.626;2022-10-26T09:04:27;7.30;;;3.10;;
8312;SDS011;4194;43.408;24.626;2022-10-26T09:09:24;5.33;;;3.03;;
8312;SDS011;4194;43.408;24.626;2022-10-26T09:20:13;4.40;;;2.80;;
8312;SDS011;4194;43.408;24.626;2022-10-26T09:25:41;6.27;;;3.13;;
8312;SDS011;4194;43.408;24.626;2022-10-26T09:28:15;4.53;;;2.40;;
8312;SDS011;4194;43.408;24.626;2022-10-26T09:30:46;4.73;;;2.77;;
8312;SDS011;4194;43.408;24.626;2022-10-26T09:33:16;4.60;;;3.10;;
8312;SDS011;4194;43.408;24.626;2022-10-26T09:35:49;4.23;;;2.60;;
8312;SDS011;4194;43.408;24.626;2022-10-26T09:41:20;2.60;;;2.30;;
8312;SDS011;4194;43.408;24.626;2022-10-26T09:44:03;3.87;;;2.20;;
8312;SDS011;4194;43.408;24.626;2022-10-26T09:46:45;6.23;;;2.30;;
8312;SDS011;4194;43.408;24.626;2022-10-26T09:49:16;4.13;;;2.37;;
8312;SDS011;4194;43.408;24.626;2022-10-26T09:51:44;5.13;;;2.47;;
8312;SDS011;4194;43.408;24.626;2022-10-26T09:54:14;5.53;;;2.80;;
8312;SDS011;4194;43.408;24.626;2022-10-26T09:56:43;7.00;;;2.87;;
8312;SDS011;4194;43.408;24.626;2022-10-26T09:59:11;5.37;;;2.30;;
8312;SDS011;4194;43.408;24.626;2022-10-26T10:01:39;3.60;;;2.53;;
8312;SDS011;4194;43.408;24.626;2022-10-26T10:06:40;3.60;;;2.30;;
8312;SDS011;4194;43.408;24.626;2022-10-26T10:09:40;3.77;;;2.70;;
8312;SDS011;4194;43.408;24.626;2022-10-26T10:11:59;3.50;;;2.10;;
8312;SDS011;4194;43.408;24.626;2022-10-26T10:16:54;5.10;;;2.40;;
8312;SDS011;4194;43.408;24.626;2022-10-26T10:21:56;5.97;;;2.47;;
8312;SDS011;4194;43.408;24.626;2022-10-26T10:24:25;3.73;;;2.20;;
8312;SDS011;4194;43.408;24.626;2022-10-26T10:26:58;3.37;;;2.23;;
8312;SDS011;4194;43.408;24.626;2022-10-26T10:29:24;4.70;;;2.38;;
8312;SDS011;4194;43.408;24.626;2022-10-26T10:31:54;4.60;;;2.23;;
8312;SDS011;4194;43.408;24.626;2022-10-26T10:34:21;3.80;;;2.50;;
8312;SDS011;4194;43.408;24.626;2022-10-26T10:36:47;2.77;;;2.33;;
8312;SDS011;4194;43.408;24.626;2022-10-26T10:39:27;2.50;;;1.93;;
8312;SDS011;4194;43.408;24.626;2022-10-26T10:42:13;5.57;;;2.63;;
8312;SDS011;4194;43.408;24.626;2022-10-26T10:44:54;3.67;;;2.77;;
8312;SDS011;4194;43.408;24.626;2022-10-26T10:47:22;2.37;;;2.10;;
8312;SDS011;4194;43.408;24.626;2022-10-26T10:49:52;3.13;;;2.27;;
8312;SDS011;4194;43.408;24.626;2022-10-26T10:52:22;4.03;;;2.30;;
8312;SDS011;4194;43.408;24.626;2022-10-26T10:54:50;3.73;;;2.23;;
8312;SDS011;4194;43.408;24.626;2022-10-26T11:00:09;2.23;;;2.00;;
8312;SDS011;4194;43.408;24.626;2022-10-26T11:02:47;3.37;;;1.97;;
8312;SDS011;4194;43.408;24.626;2022-10-26T11:08:45;3.30;;;1.90;;
8312;SDS011;4194;43.408;24.626;2022-10-26T11:13:55;3.77;;;1.90;;
8312;SDS011;4194;43.408;24.626;2022-10-26T11:16:24;3.33;;;2.10;;
8312;SDS011;4194;43.408;24.626;2022-10-26T11:21:36;2.97;;;2.40;;
8312;SDS011;4194;43.408;24.626;2022-10-26T11:29:44;3.63;;;1.90;;
8312;SDS011;4194;43.408;24.626;2022-10-26T11:32:19;3.73;;;1.90;;
8312;SDS011;4194;43.408;24.626;2022-10-26T11:34:53;2.80;;;1.73;;
8312;SDS011;4194;43.408;24.626;2022-10-26T11:37:38;3.43;;;2.00;;
8312;SDS011;4194;43.408;24.626;2022-10-26T11:40:29;2.50;;;1.90;;
8312;SDS011;4194;43.408;24.626;2022-10-26T11:46:01;2.50;;;1.80;;
8312;SDS011;4194;43.408;24.626;2022-10-26T11:48:42;4.28;;;2.05;;
8312;SDS011;4194;43.408;24.626;2022-10-26T11:54:00;2.42;;;1.67;;
8312;SDS011;4194;43.408;24.626;2022-10-26T11:56:33;3.67;;;1.88;;
8312;SDS011;4194;43.408;24.626;2022-10-26T11:59:04;2.67;;;1.60;;
8312;SDS011;4194;43.408;24.626;2022-10-26T12:01:33;4.40;;;1.80;;
8312;SDS011;4194;43.408;24.626;2022-10-26T12:03:59;2.50;;;1.48;;
8312;SDS011;4194;43.408;24.626;2022-10-26T12:06:27;2.78;;;2.05;;
8312;SDS011;4194;43.408;24.626;2022-10-26T12:09:07;3.83;;;1.98;;
8312;SDS011;4194;43.408;24.626;2022-10-26T12:17:21;1.98;;;1.40;;
8312;SDS011;4194;43.408;24.626;2022-10-26T12:19:58;3.63;;;1.65;;
8312;SDS011;4194;43.408;24.626;2022-10-26T12:22:28;3.45;;;1.50;;
8312;SDS011;4194;43.408;24.626;2022-10-26T12:37:39;2.65;;;1.52;;
8312;SDS011;4194;43.408;24.626;2022-10-26T12:45:44;1.80;;;1.63;;
8312;SDS011;4194;43.408;24.626;2022-10-26T12:48:21;3.47;;;1.42;;
8312;SDS011;4194;43.408;24.626;2022-10-26T12:50:51;1.55;;;1.38;;
8312;SDS011;4194;43.408;24.626;2022-10-26T12:53:18;1.73;;;1.45;;
8312;SDS011;4194;43.408;24.626;2022-10-26T13:09:08;5.43;;;1.55;;
8312;SDS011;4194;43.408;24.626;2022-10-26T13:11:50;3.70;;;1.45;;
8312;SDS011;4194;43.408;24.626;2022-10-26T13:14:52;2.05;;;1.20;;
8312;SDS011;4194;43.408;24.626;2022-10-26T13:17:21;2.17;;;1.58;;
8312;SDS011;4194;43.408;24.626;2022-10-26T13:20:35;3.90;;;1.65;;
8312;SDS011;4194;43.408;24.626;2022-10-26T13:22:45;2.25;;;1.23;;
8312;SDS011;4194;43.408;24.626;2022-10-26T13:25:20;2.28;;;1.38;;
8312;SDS011;4194;43.408;24.626;2022-10-26T13:33:48;3.35;;;1.40;;
8312;SDS011;4194;43.408;24.626;2022-10-26T13:36:26;2.30;;;1.60;;
8312;SDS011;4194;43.408;24.626;2022-10-26T13:38:57;3.65;;;1.75;;
8312;SDS011;4194;43.408;24.626;2022-10-26T13:41:31;3.80;;;2.00;;
8312;SDS011;4194;43.408;24.626;2022-10-26T13:44:02;3.50;;;1.90;;
8312;SDS011;4194;43.408;24.626;2022-10-26T13:46:33;4.97;;;1.90;;
8312;SDS011;4194;43.408;24.626;2022-10-26T13:49:04;5.47;;;2.10;;
8312;SDS011;4194;43.408;24.626;2022-10-26T13:51:39;5.20;;;2.47;;
8312;SDS011;4194;43.408;24.626;2022-10-26T13:57:00;4.03;;;2.40;;
8312;SDS011;4194;43.408;24.626;2022-10-26T13:59:29;4.50;;;2.33;;
8312;SDS011;4194;43.408;24.626;2022-10-26T14:04:59;6.93;;;3.23;;
8312;SDS011;4194;43.408;24.626;2022-10-26T14:07:48;6.90;;;2.33;;
8312;SDS011;4194;43.408;24.626;2022-10-26T14:10:27;8.90;;;2.70;;
8312;SDS011;4194;43.408;24.626;2022-10-26T14:12:54;4.77;;;2.33;;
8312;SDS011;4194;43.408;24.626;2022-10-26T14:15:30;11.07;;;2.73;;
8312;SDS011;4194;43.408;24.626;2022-10-26T14:17:57;4.47;;;2.10;;
8312;SDS011;4194;43.408;24.626;2022-10-26T14:20:25;3.43;;;2.30;;
8312;SDS011;4194;43.408;24.626;2022-10-26T14:22:52;7.10;;;2.57;;
8312;SDS011;4194;43.408;24.626;2022-10-26T14:25:26;9.63;;;2.13;;
8312;SDS011;4194;43.408;24.626;2022-10-26T14:27:53;7.03;;;2.40;;
8312;SDS011;4194;43.408;24.626;2022-10-26T14:32:55;6.03;;;2.67;;
8312;SDS011;4194;43.408;24.626;2022-10-26T14:35:22;2.80;;;2.30;;
8312;SDS011;4194;43.408;24.626;2022-10-26T14:37:52;3.70;;;2.30;;
8312;SDS011;4194;43.408;24.626;2022-10-26T14:40:21;4.33;;;2.60;;
8312;SDS011;4194;43.408;24.626;2022-10-26T14:42:51;3.53;;;2.43;;
8312;SDS011;4194;43.408;24.626;2022-10-26T14:45:28;9.70;;;2.43;;
8312;SDS011;4194;43.408;24.626;2022-10-26T14:47:56;10.73;;;3.03;;
8312;SDS011;4194;43.408;24.626;2022-10-26T14:50:23;3.77;;;2.83;;
8312;SDS011;4194;43.408;24.626;2022-10-26T14:52:58;6.60;;;2.90;;
8312;SDS011;4194;43.408;24.626;2022-10-26T14:58:40;6.60;;;3.20;;
8312;SDS011;4194;43.408;24.626;2022-10-26T15:03:52;7.10;;;3.27;;
8312;SDS011;4194;43.408;24.626;2022-10-26T15:06:39;8.30;;;2.80;;
8312;SDS011;4194;43.408;24.626;2022-10-26T15:09:15;4.97;;;3.10;;
8312;SDS011;4194;43.408;24.626;2022-10-26T15:11:53;9.67;;;3.63;;
8312;SDS011;4194;43.408;24.626;2022-10-26T15:14:19;7.67;;;2.90;;
8312;SDS011;4194;43.408;24.626;2022-10-26T15:16:49;9.37;;;3.07;;
8312;SDS011;4194;43.408;24.626;2022-10-26T15:19:20;8.13;;;3.03;;
8312;SDS011;4194;43.408;24.626;2022-10-26T15:21:48;7.72;;;2.92;;
8312;SDS011;4194;43.408;24.626;2022-10-26T15:24:36;4.37;;;2.80;;
8312;SDS011;4194;43.408;24.626;2022-10-26T15:27:03;7.23;;;3.07;;
8312;SDS011;4194;43.408;24.626;2022-10-26T15:32:17;10.67;;;3.10;;
8312;SDS011;4194;43.408;24.626;2022-10-26T15:34:47;8.50;;;3.10;;
8312;SDS011;4194;43.408;24.626;2022-10-26T15:37:14;11.13;;;3.27;;
8312;SDS011;4194;43.408;24.626;2022-10-26T15:39:40;7.50;;;3.60;;
8312;SDS011;4194;43.408;24.626;2022-10-26T15:42:08;8.80;;;4.10;;
8312;SDS011;4194;43.408;24.626;2022-10-26T15:44:37;12.43;;;4.33;;
8312;SDS011;4194;43.408;24.626;2022-10-26T15:47:03;14.87;;;5.10;;
8312;SDS011;4194;43.408;24.626;2022-10-26T15:49:28;14.23;;;5.40;;
8312;SDS011;4194;43.408;24.626;2022-10-26T15:51:54;10.50;;;5.03;;
8312;SDS011;4194;43.408;24.626;2022-10-26T15:54:20;8.33;;;4.00;;
8312;SDS011;4194;43.408;24.626;2022-10-26T15:56:47;8.33;;;4.60;;
8312;SDS011;4194;43.408;24.626;2022-10-26T15:59:13;12.13;;;4.63;;
8312;SDS011;4194;43.408;24.626;2022-10-26T16:01:43;8.20;;;4.10;;
8312;SDS011;4194;43.408;24.626;2022-10-26T16:04:09;7.53;;;4.17;;
8312;SDS011;4194;43.408;24.626;2022-10-26T16:06:36;5.60;;;3.70;;
8312;SDS011;4194;43.408;24.626;2022-10-26T16:09:05;10.67;;;4.23;;
8312;SDS011;4194;43.408;24.626;2022-10-26T16:11:34;12.43;;;4.07;;
8312;SDS011;4194;43.408;24.626;2022-10-26T16:14:00;8.97;;;4.07;;
8312;SDS011;4194;43.408;24.626;2022-10-26T16:16:26;10.37;;;4.70;;
8312;SDS011;4194;43.408;24.626;2022-10-26T16:18:52;10.57;;;4.53;;
8312;SDS011;4194;43.408;24.626;2022-10-26T16:21:20;12.10;;;5.03;;
8312;SDS011;4194;43.408;24.626;2022-10-26T16:23:47;10.73;;;6.53;;
8312;SDS011;4194;43.408;24.626;2022-10-26T16:26:13;10.23;;;5.47;;
8312;SDS011;4194;43.408;24.626;2022-10-26T16:28:39;17.40;;;7.27;;
8312;SDS011;4194;43.408;24.626;2022-10-26T16:31:06;14.20;;;6.63;;
8312;SDS011;4194;43.408;24.626;2022-10-26T16:33:34;14.50;;;6.83;;
8312;SDS011;4194;43.408;24.626;2022-10-26T16:36:01;15.03;;;6.93;;
8312;SDS011;4194;43.408;24.626;2022-10-26T16:38:27;18.13;;;7.40;;
8312;SDS011;4194;43.408;24.626;2022-10-26T16:41:16;14.90;;;7.93;;
8312;SDS011;4194;43.408;24.626;2022-10-26T16:43:42;17.27;;;9.00;;
8312;SDS011;4194;43.408;24.626;2022-10-26T16:46:09;21.93;;;8.50;;
8312;SDS011;4194;43.408;24.626;2022-10-26T16:48:40;19.73;;;9.40;;
8312;SDS011;4194;43.408;24.626;2022-10-26T16:51:11;30.37;;;9.53;;
8312;SDS011;4194;43.408;24.626;2022-10-26T16:53:42;21.30;;;10.23;;
8312;SDS011;4194;43.408;24.626;2022-10-26T16:56:11;18.40;;;9.50;;
8312;SDS011;4194;43.408;24.626;2022-10-26T16:58:38;24.40;;;10.10;;
8312;SDS011;4194;43.408;24.626;2022-10-26T17:01:05;19.27;;;9.30;;
8312;SDS011;4194;43.408;24.626;2022-10-26T17:03:31;21.80;;;10.17;;
8312;SDS011;4194;43.408;24.626;2022-10-26T17:05:58;16.37;;;8.97;;
8312;SDS011;4194;43.408;24.626;2022-10-26T17:08:25;15.87;;;8.57;;
8312;SDS011;4194;43.408;24.626;2022-10-26T17:10:52;23.63;;;8.67;;
8312;SDS011;4194;43.408;24.626;2022-10-26T17:13:19;18.00;;;8.97;;
8312;SDS011;4194;43.408;24.626;2022-10-26T17:15:45;20.07;;;10.23;;
8312;SDS011;4194;43.408;24.626;2022-10-26T17:18:12;13.90;;;9.47;;
8312;SDS011;4194;43.408;24.626;2022-10-26T17:20:38;19.40;;;9.70;;
8312;SDS011;4194;43.408;24.626;2022-10-26T17:23:04;17.77;;;9.80;;
8312;SDS011;4194;43.408;24.626;2022-10-26T17:25:34;19.73;;;9.13;;
8312;SDS011;4194;43.408;24.626;2022-10-26T17:28:00;17.53;;;8.20;;
8312;SDS011;4194;43.408;24.626;2022-10-26T17:30:27;13.13;;;7.03;;
8312;SDS011;4194;43.408;24.626;2022-10-26T17:32:53;14.10;;;8.23;;
8312;SDS011;4194;43.408;24.626;2022-10-26T17:35:18;13.63;;;8.70;;
8312;SDS011;4194;43.408;24.626;2022-10-26T17:37:44;13.03;;;8.37;;
8312;SDS011;4194;43.408;24.626;2022-10-26T17:40:10;23.10;;;10.20;;
8312;SDS011;4194;43.408;24.626;2022-10-26T17:42:36;21.77;;;11.07;;
8312;SDS011;4194;43.408;24.626;2022-10-26T17:45:02;23.67;;;13.30;;